sensor_id;sensor_type;location;lat;lon;timestamp;P1;durP1;ratioP1;P2;durP2;ratioP2
56114;SDS011;41988;53.020;6.576;2022-10-16T00:01:31;2.60;;;1.40;;
56114;SDS011;41988;53.020;6.576;2022-10-16T00:04:16;2.67;;;1.20;;
56114;SDS011;41988;53.020;6.576;2022-10-16T00:07:01;2.00;;;1.05;;
56114;SDS011;41988;53.020;6.576;2022-10-16T00:09:45;3.50;;;1.10;;
56114;SDS011;41988;53.020;6.576;2022-10-16T00:12:30;4.63;;;1.10;;
56114;SDS011;41988;53.020;6.576;2022-10-16T00:15:14;1.67;;;1.08;;
56114;SDS011;41988;53.020;6.576;2022-10-16T00:17:59;6.13;;;1.13;;
56114;SDS011;41988;53.020;6.576;2022-10-16T00:20:44;3.92;;;1.23;;
56114;SDS011;41988;53.020;6.576;2022-10-16T00:23:28;6.53;;;1.08;;
56114;SDS011;41988;53.020;6.576;2022-10-16T00:26:15;2.00;;;0.90;;
56114;SDS011;41988;53.020;6.576;2022-10-16T00:29:00;2.70;;;1.20;;
56114;SDS011;41988;53.020;6.576;2022-10-16T00:31:45;4.10;;;1.13;;
56114;SDS011;41988;53.020;6.576;2022-10-16T00:34:30;2.75;;;1.30;;
56114;SDS011;41988;53.020;6.576;2022-10-16T00:37:15;2.80;;;1.50;;
56114;SDS011;41988;53.020;6.576;2022-10-16T00:39:59;3.92;;;1.30;;
56114;SDS011;41988;53.020;6.576;2022-10-16T00:42:43;2.35;;;1.30;;
56114;SDS011;41988;53.020;6.576;2022-10-16T00:45:28;2.40;;;1.20;;
56114;SDS011;41988;53.020;6.576;2022-10-16T00:48:12;1.85;;;0.98;;
56114;SDS011;41988;53.020;6.576;2022-10-16T00:50:58;5.72;;;1.38;;
56114;SDS011;41988;53.020;6.576;2022-10-16T00:53:43;4.80;;;1.73;;
56114;SDS011;41988;53.020;6.576;2022-10-16T00:56:28;4.55;;;1.10;;
56114;SDS011;41988;53.020;6.576;2022-10-16T00:59:18;5.05;;;1.20;;
56114;SDS011;41988;53.020;6.576;2022-10-16T01:02:03;4.32;;;1.48;;
56114;SDS011;41988;53.020;6.576;2022-10-16T01:04:50;4.90;;;1.40;;
56114;SDS011;41988;53.020;6.576;2022-10-16T01:10:28;2.50;;;1.75;;
56114;SDS011;41988;53.020;6.576;2022-10-16T01:13:18;2.45;;;1.00;;
56114;SDS011;41988;53.020;6.576;2022-10-16T01:16:06;2.47;;;1.10;;
56114;SDS011;41988;53.020;6.576;2022-10-16T01:18:54;4.43;;;1.00;;
56114;SDS011;41988;53.020;6.576;2022-10-16T01:21:53;3.72;;;1.00;;
56114;SDS011;41988;53.020;6.576;2022-10-16T01:24:40;1.90;;;1.08;;
56114;SDS011;41988;53.020;6.576;2022-10-16T01:27:25;2.30;;;1.17;;
56114;SDS011;41988;53.020;6.576;2022-10-16T01:30:18;6.97;;;1.30;;
56114;SDS011;41988;53.020;6.576;2022-10-16T01:33:08;4.28;;;1.02;;
56114;SDS011;41988;53.020;6.576;2022-10-16T01:35:54;2.05;;;1.20;;
56114;SDS011;41988;53.020;6.576;2022-10-16T01:38:40;3.38;;;1.23;;
56114;SDS011;41988;53.020;6.576;2022-10-16T01:41:28;2.70;;;1.10;;
56114;SDS011;41988;53.020;6.576;2022-10-16T01:44:48;2.08;;;1.27;;
56114;SDS011;41988;53.020;6.576;2022-10-16T01:47:25;1.80;;;1.15;;
56114;SDS011;41988;53.020;6.576;2022-10-16T01:50:11;8.60;;;1.45;;
56114;SDS011;41988;53.020;6.576;2022-10-16T01:52:56;3.90;;;1.50;;
56114;SDS011;41988;53.020;6.576;2022-10-16T01:55:43;2.05;;;1.00;;
56114;SDS011;41988;53.020;6.576;2022-10-16T01:58:29;2.55;;;1.23;;
56114;SDS011;41988;53.020;6.576;2022-10-16T02:01:18;6.10;;;1.15;;
56114;SDS011;41988;53.020;6.576;2022-10-16T02:04:09;4.43;;;1.45;;
56114;SDS011;41988;53.020;6.576;2022-10-16T02:06:54;2.50;;;1.10;;
56114;SDS011;41988;53.020;6.576;2022-10-16T02:09:39;2.90;;;1.27;;
56114;SDS011;41988;53.020;6.576;2022-10-16T02:12:28;3.50;;;1.10;;
56114;SDS011;41988;53.020;6.576;2022-10-16T02:15:14;1.98;;;1.15;;
56114;SDS011;41988;53.020;6.576;2022-10-16T02:17:59;3.22;;;1.13;;
56114;SDS011;41988;53.020;6.576;2022-10-16T02:23:51;3.80;;;1.23;;
56114;SDS011;41988;53.020;6.576;2022-10-16T02:29:24;2.08;;;1.10;;
56114;SDS011;41988;53.020;6.576;2022-10-16T02:32:09;2.42;;;1.08;;
56114;SDS011;41988;53.020;6.576;2022-10-16T02:34:54;3.85;;;0.88;;
56114;SDS011;41988;53.020;6.576;2022-10-16T02:37:39;2.70;;;1.50;;
56114;SDS011;41988;53.020;6.576;2022-10-16T02:40:24;2.55;;;1.13;;
56114;SDS011;41988;53.020;6.576;2022-10-16T02:43:10;3.45;;;1.13;;
56114;SDS011;41988;53.020;6.576;2022-10-16T02:45:55;3.95;;;1.08;;
56114;SDS011;41988;53.020;6.576;2022-10-16T02:48:39;3.40;;;1.00;;
56114;SDS011;41988;53.020;6.576;2022-10-16T02:51:24;3.72;;;1.15;;
56114;SDS011;41988;53.020;6.576;2022-10-16T02:54:09;2.63;;;1.13;;
56114;SDS011;41988;53.020;6.576;2022-10-16T02:56:54;1.40;;;0.90;;
56114;SDS011;41988;53.020;6.576;2022-10-16T02:59:38;3.83;;;1.38;;
56114;SDS011;41988;53.020;6.576;2022-10-16T03:02:23;1.60;;;1.00;;
56114;SDS011;41988;53.020;6.576;2022-10-16T03:05:07;2.10;;;1.10;;
56114;SDS011;41988;53.020;6.576;2022-10-16T03:07:52;2.00;;;1.10;;
56114;SDS011;41988;53.020;6.576;2022-10-16T03:10:37;2.63;;;1.05;;
56114;SDS011;41988;53.020;6.576;2022-10-16T03:13:21;2.38;;;1.05;;
56114;SDS011;41988;53.020;6.576;2022-10-16T03:16:06;2.13;;;1.17;;
56114;SDS011;41988;53.020;6.576;2022-10-16T03:18:50;2.45;;;1.13;;
56114;SDS011;41988;53.020;6.576;2022-10-16T03:21:34;2.80;;;1.38;;
56114;SDS011;41988;53.020;6.576;2022-10-16T03:24:19;3.60;;;1.40;;
56114;SDS011;41988;53.020;6.576;2022-10-16T03:27:04;2.90;;;1.30;;
56114;SDS011;41988;53.020;6.576;2022-10-16T03:29:48;2.63;;;1.13;;
56114;SDS011;41988;53.020;6.576;2022-10-16T03:32:33;3.42;;;1.33;;
56114;SDS011;41988;53.020;6.576;2022-10-16T03:35:17;2.90;;;1.20;;
56114;SDS011;41988;53.020;6.576;2022-10-16T03:38:02;2.13;;;1.02;;
56114;SDS011;41988;53.020;6.576;2022-10-16T03:40:49;2.65;;;1.30;;
56114;SDS011;41988;53.020;6.576;2022-10-16T03:43:34;1.73;;;1.02;;
56114;SDS011;41988;53.020;6.576;2022-10-16T03:46:19;5.78;;;1.50;;
56114;SDS011;41988;53.020;6.576;2022-10-16T03:49:04;2.35;;;1.15;;
56114;SDS011;41988;53.020;6.576;2022-10-16T03:51:48;2.35;;;1.15;;
56114;SDS011;41988;53.020;6.576;2022-10-16T03:54:33;2.08;;;1.20;;
56114;SDS011;41988;53.020;6.576;2022-10-16T03:57:17;5.00;;;1.20;;
56114;SDS011;41988;53.020;6.576;2022-10-16T04:00:02;4.00;;;1.00;;
56114;SDS011;41988;53.020;6.576;2022-10-16T04:02:47;2.00;;;1.10;;
56114;SDS011;41988;53.020;6.576;2022-10-16T04:05:32;2.90;;;1.60;;
56114;SDS011;41988;53.020;6.576;2022-10-16T04:08:17;2.58;;;1.23;;
56114;SDS011;41988;53.020;6.576;2022-10-16T04:11:02;2.10;;;1.10;;
56114;SDS011;41988;53.020;6.576;2022-10-16T04:13:47;7.05;;;1.33;;
56114;SDS011;41988;53.020;6.576;2022-10-16T04:16:32;3.20;;;1.38;;
56114;SDS011;41988;53.020;6.576;2022-10-16T04:19:16;4.53;;;1.13;;
56114;SDS011;41988;53.020;6.576;2022-10-16T04:22:01;4.20;;;1.10;;
56114;SDS011;41988;53.020;6.576;2022-10-16T04:24:46;3.33;;;1.10;;
56114;SDS011;41988;53.020;6.576;2022-10-16T04:27:30;3.88;;;1.30;;
56114;SDS011;41988;53.020;6.576;2022-10-16T04:30:15;2.63;;;1.20;;
56114;SDS011;41988;53.020;6.576;2022-10-16T04:33:00;2.40;;;1.17;;
56114;SDS011;41988;53.020;6.576;2022-10-16T04:35:45;3.25;;;1.48;;
56114;SDS011;41988;53.020;6.576;2022-10-16T04:38:29;2.03;;;1.13;;
56114;SDS011;41988;53.020;6.576;2022-10-16T04:41:15;5.55;;;1.40;;
56114;SDS011;41988;53.020;6.576;2022-10-16T04:43:59;1.98;;;1.10;;
56114;SDS011;41988;53.020;6.576;2022-10-16T04:46:44;4.63;;;1.40;;
56114;SDS011;41988;53.020;6.576;2022-10-16T04:49:28;5.45;;;1.50;;
56114;SDS011;41988;53.020;6.576;2022-10-16T04:52:13;2.55;;;1.48;;
56114;SDS011;41988;53.020;6.576;2022-10-16T04:54:58;2.45;;;1.20;;
56114;SDS011;41988;53.020;6.576;2022-10-16T04:57:45;5.03;;;1.40;;
56114;SDS011;41988;53.020;6.576;2022-10-16T05:00:29;2.58;;;1.30;;
56114;SDS011;41988;53.020;6.576;2022-10-16T05:03:14;3.10;;;1.42;;
56114;SDS011;41988;53.020;6.576;2022-10-16T05:05:58;2.20;;;1.40;;
56114;SDS011;41988;53.020;6.576;2022-10-16T05:08:43;2.28;;;1.38;;
56114;SDS011;41988;53.020;6.576;2022-10-16T05:11:27;2.83;;;1.50;;
56114;SDS011;41988;53.020;6.576;2022-10-16T05:14:12;4.40;;;1.42;;
56114;SDS011;41988;53.020;6.576;2022-10-16T05:16:56;5.32;;;1.60;;
56114;SDS011;41988;53.020;6.576;2022-10-16T05:19:41;2.63;;;1.20;;
56114;SDS011;41988;53.020;6.576;2022-10-16T05:22:25;5.78;;;1.15;;
56114;SDS011;41988;53.020;6.576;2022-10-16T05:25:10;2.75;;;1.38;;
56114;SDS011;41988;53.020;6.576;2022-10-16T05:27:55;4.75;;;1.48;;
56114;SDS011;41988;53.020;6.576;2022-10-16T05:30:40;2.30;;;1.23;;
56114;SDS011;41988;53.020;6.576;2022-10-16T05:33:25;3.10;;;1.48;;
56114;SDS011;41988;53.020;6.576;2022-10-16T05:36:10;2.40;;;1.20;;
56114;SDS011;41988;53.020;6.576;2022-10-16T05:38:55;2.60;;;1.38;;
56114;SDS011;41988;53.020;6.576;2022-10-16T05:41:39;2.65;;;1.45;;
56114;SDS011;41988;53.020;6.576;2022-10-16T05:44:23;4.30;;;1.45;;
56114;SDS011;41988;53.020;6.576;2022-10-16T05:47:08;3.22;;;1.27;;
56114;SDS011;41988;53.020;6.576;2022-10-16T05:49:54;2.88;;;1.42;;
56114;SDS011;41988;53.020;6.576;2022-10-16T05:52:39;2.17;;;1.30;;
56114;SDS011;41988;53.020;6.576;2022-10-16T05:55:24;3.22;;;1.42;;
56114;SDS011;41988;53.020;6.576;2022-10-16T05:58:08;2.95;;;1.48;;
56114;SDS011;41988;53.020;6.576;2022-10-16T06:00:57;2.20;;;1.40;;
56114;SDS011;41988;53.020;6.576;2022-10-16T06:03:42;2.35;;;1.45;;
56114;SDS011;41988;53.020;6.576;2022-10-16T06:06:27;4.97;;;1.40;;
56114;SDS011;41988;53.020;6.576;2022-10-16T06:09:13;3.25;;;1.52;;
56114;SDS011;41988;53.020;6.576;2022-10-16T06:11:57;3.10;;;1.33;;
56114;SDS011;41988;53.020;6.576;2022-10-16T06:14:42;5.63;;;1.42;;
56114;SDS011;41988;53.020;6.576;2022-10-16T06:17:26;2.30;;;1.30;;
56114;SDS011;41988;53.020;6.576;2022-10-16T06:20:11;3.25;;;1.60;;
56114;SDS011;41988;53.020;6.576;2022-10-16T06:22:55;3.13;;;1.30;;
56114;SDS011;41988;53.020;6.576;2022-10-16T06:25:40;3.88;;;1.65;;
56114;SDS011;41988;53.020;6.576;2022-10-16T06:28:24;2.75;;;1.33;;
56114;SDS011;41988;53.020;6.576;2022-10-16T06:31:09;2.50;;;1.40;;
56114;SDS011;41988;53.020;6.576;2022-10-16T06:33:54;2.67;;;1.40;;
56114;SDS011;41988;53.020;6.576;2022-10-16T06:36:40;3.15;;;1.27;;
56114;SDS011;41988;53.020;6.576;2022-10-16T06:39:24;3.65;;;1.55;;
56114;SDS011;41988;53.020;6.576;2022-10-16T06:42:09;3.08;;;1.40;;
56114;SDS011;41988;53.020;6.576;2022-10-16T06:44:53;3.10;;;1.50;;
56114;SDS011;41988;53.020;6.576;2022-10-16T06:47:38;3.90;;;1.42;;
56114;SDS011;41988;53.020;6.576;2022-10-16T06:50:23;3.08;;;1.52;;
56114;SDS011;41988;53.020;6.576;2022-10-16T06:53:07;4.90;;;1.50;;
56114;SDS011;41988;53.020;6.576;2022-10-16T06:55:51;4.72;;;1.48;;
56114;SDS011;41988;53.020;6.576;2022-10-16T06:58:36;3.30;;;1.20;;
56114;SDS011;41988;53.020;6.576;2022-10-16T07:01:21;2.30;;;1.30;;
56114;SDS011;41988;53.020;6.576;2022-10-16T07:04:06;2.58;;;1.27;;
56114;SDS011;41988;53.020;6.576;2022-10-16T07:06:51;3.85;;;1.63;;
56114;SDS011;41988;53.020;6.576;2022-10-16T07:09:35;4.28;;;1.55;;
56114;SDS011;41988;53.020;6.576;2022-10-16T07:12:20;2.15;;;1.25;;
56114;SDS011;41988;53.020;6.576;2022-10-16T07:15:05;5.13;;;1.45;;
56114;SDS011;41988;53.020;6.576;2022-10-16T07:17:50;6.90;;;1.55;;
56114;SDS011;41988;53.020;6.576;2022-10-16T07:20:34;3.08;;;1.30;;
56114;SDS011;41988;53.020;6.576;2022-10-16T07:23:21;3.28;;;1.65;;
56114;SDS011;41988;53.020;6.576;2022-10-16T07:26:05;9.98;;;1.30;;
56114;SDS011;41988;53.020;6.576;2022-10-16T07:28:50;2.40;;;1.20;;
56114;SDS011;41988;53.020;6.576;2022-10-16T07:31:35;2.42;;;1.20;;
56114;SDS011;41988;53.020;6.576;2022-10-16T07:34:20;2.13;;;1.27;;
56114;SDS011;41988;53.020;6.576;2022-10-16T07:37:05;1.98;;;1.00;;
56114;SDS011;41988;53.020;6.576;2022-10-16T07:39:50;8.50;;;1.90;;
56114;SDS011;41988;53.020;6.576;2022-10-16T07:42:35;4.47;;;1.20;;
56114;SDS011;41988;53.020;6.576;2022-10-16T07:45:20;3.08;;;1.00;;
56114;SDS011;41988;53.020;6.576;2022-10-16T07:48:04;4.53;;;1.45;;
56114;SDS011;41988;53.020;6.576;2022-10-16T07:50:49;3.80;;;1.30;;
56114;SDS011;41988;53.020;6.576;2022-10-16T07:53:33;2.40;;;1.05;;
56114;SDS011;41988;53.020;6.576;2022-10-16T07:56:18;2.03;;;1.23;;
56114;SDS011;41988;53.020;6.576;2022-10-16T07:59:03;6.03;;;1.30;;
56114;SDS011;41988;53.020;6.576;2022-10-16T08:01:51;3.22;;;1.13;;
56114;SDS011;41988;53.020;6.576;2022-10-16T08:04:35;2.40;;;1.17;;
56114;SDS011;41988;53.020;6.576;2022-10-16T08:07:20;2.25;;;1.02;;
56114;SDS011;41988;53.020;6.576;2022-10-16T08:10:04;2.38;;;1.30;;
56114;SDS011;41988;53.020;6.576;2022-10-16T08:12:49;3.88;;;1.05;;
56114;SDS011;41988;53.020;6.576;2022-10-16T08:15:34;2.45;;;1.00;;
56114;SDS011;41988;53.020;6.576;2022-10-16T08:18:18;2.75;;;1.15;;
56114;SDS011;41988;53.020;6.576;2022-10-16T08:21:04;3.08;;;1.20;;
56114;SDS011;41988;53.020;6.576;2022-10-16T08:23:49;5.00;;;1.00;;
56114;SDS011;41988;53.020;6.576;2022-10-16T08:26:34;2.85;;;0.80;;
56114;SDS011;41988;53.020;6.576;2022-10-16T08:29:18;1.85;;;0.98;;
56114;SDS011;41988;53.020;6.576;2022-10-16T08:32:03;5.57;;;0.90;;
56114;SDS011;41988;53.020;6.576;2022-10-16T08:34:48;6.00;;;0.90;;
56114;SDS011;41988;53.020;6.576;2022-10-16T08:37:33;2.20;;;0.80;;
56114;SDS011;41988;53.020;6.576;2022-10-16T08:40:22;1.25;;;0.70;;
56114;SDS011;41988;53.020;6.576;2022-10-16T08:49:09;3.30;;;0.90;;
56114;SDS011;41988;53.020;6.576;2022-10-16T08:51:56;1.42;;;0.80;;
56114;SDS011;41988;53.020;6.576;2022-10-16T08:54:42;2.13;;;0.88;;
56114;SDS011;41988;53.020;6.576;2022-10-16T08:57:27;1.65;;;0.90;;
56114;SDS011;41988;53.020;6.576;2022-10-16T09:00:12;5.43;;;1.15;;
56114;SDS011;41988;53.020;6.576;2022-10-16T09:05:54;3.75;;;1.10;;
56114;SDS011;41988;53.020;6.576;2022-10-16T09:08:54;1.85;;;1.00;;
56114;SDS011;41988;53.020;6.576;2022-10-16T09:14:37;4.00;;;1.10;;
56114;SDS011;41988;53.020;6.576;2022-10-16T09:17:34;2.95;;;0.98;;
56114;SDS011;41988;53.020;6.576;2022-10-16T09:20:33;4.07;;;0.98;;
56114;SDS011;41988;53.020;6.576;2022-10-16T09:23:29;5.05;;;0.93;;
56114;SDS011;41988;53.020;6.576;2022-10-16T09:26:14;2.97;;;1.10;;
56114;SDS011;41988;53.020;6.576;2022-10-16T09:28:59;2.40;;;1.13;;
56114;SDS011;41988;53.020;6.576;2022-10-16T09:31:43;1.52;;;0.80;;
56114;SDS011;41988;53.020;6.576;2022-10-16T09:34:32;1.60;;;1.00;;
56114;SDS011;41988;53.020;6.576;2022-10-16T09:37:19;2.58;;;0.90;;
56114;SDS011;41988;53.020;6.576;2022-10-16T09:40:04;7.55;;;0.90;;
56114;SDS011;41988;53.020;6.576;2022-10-16T09:42:49;1.63;;;0.80;;
56114;SDS011;41988;53.020;6.576;2022-10-16T09:45:36;1.85;;;0.90;;
56114;SDS011;41988;53.020;6.576;2022-10-16T09:48:21;5.65;;;1.25;;
56114;SDS011;41988;53.020;6.576;2022-10-16T09:51:06;2.38;;;1.10;;
56114;SDS011;41988;53.020;6.576;2022-10-16T09:53:59;3.90;;;1.00;;
56114;SDS011;41988;53.020;6.576;2022-10-16T09:56:45;4.90;;;1.00;;
56114;SDS011;41988;53.020;6.576;2022-10-16T09:59:33;5.15;;;1.10;;
56114;SDS011;41988;53.020;6.576;2022-10-16T10:02:31;3.08;;;0.80;;
56114;SDS011;41988;53.020;6.576;2022-10-16T10:05:22;2.00;;;0.68;;
56114;SDS011;41988;53.020;6.576;2022-10-16T10:08:12;3.63;;;1.17;;
56114;SDS011;41988;53.020;6.576;2022-10-16T10:11:00;5.68;;;1.27;;
56114;SDS011;41988;53.020;6.576;2022-10-16T10:13:44;2.35;;;0.93;;
56114;SDS011;41988;53.020;6.576;2022-10-16T10:16:29;2.50;;;0.80;;
56114;SDS011;41988;53.020;6.576;2022-10-16T10:19:15;4.15;;;1.50;;
56114;SDS011;41988;53.020;6.576;2022-10-16T10:22:00;3.00;;;1.02;;
56114;SDS011;41988;53.020;6.576;2022-10-16T10:24:46;5.30;;;1.00;;
56114;SDS011;41988;53.020;6.576;2022-10-16T10:36:22;2.95;;;1.13;;
56114;SDS011;41988;53.020;6.576;2022-10-16T10:39:15;2.20;;;1.13;;
56114;SDS011;41988;53.020;6.576;2022-10-16T10:50:52;3.95;;;1.65;;
56114;SDS011;41988;53.020;6.576;2022-10-16T10:59:19;6.15;;;1.13;;
56114;SDS011;41988;53.020;6.576;2022-10-16T11:11:52;8.23;;;1.50;;
56114;SDS011;41988;53.020;6.576;2022-10-16T11:14:41;2.17;;;0.88;;
56114;SDS011;41988;53.020;6.576;2022-10-16T11:17:35;5.18;;;1.35;;
56114;SDS011;41988;53.020;6.576;2022-10-16T11:20:24;4.38;;;1.00;;
56114;SDS011;41988;53.020;6.576;2022-10-16T11:23:24;5.22;;;1.00;;
56114;SDS011;41988;53.020;6.576;2022-10-16T11:26:11;3.20;;;0.98;;
56114;SDS011;41988;53.020;6.576;2022-10-16T11:28:58;6.80;;;1.25;;
56114;SDS011;41988;53.020;6.576;2022-10-16T11:31:49;9.02;;;1.63;;
56114;SDS011;41988;53.020;6.576;2022-10-16T11:34:36;5.47;;;1.27;;
56114;SDS011;41988;53.020;6.576;2022-10-16T11:37:31;2.97;;;1.50;;
56114;SDS011;41988;53.020;6.576;2022-10-16T11:40:33;3.35;;;0.90;;
56114;SDS011;41988;53.020;6.576;2022-10-16T11:46:19;3.83;;;1.30;;
56114;SDS011;41988;53.020;6.576;2022-10-16T11:49:14;4.00;;;1.10;;
56114;SDS011;41988;53.020;6.576;2022-10-16T11:54:59;7.57;;;1.27;;
56114;SDS011;41988;53.020;6.576;2022-10-16T11:57:57;8.98;;;1.27;;
56114;SDS011;41988;53.020;6.576;2022-10-16T12:00:55;3.40;;;0.88;;
56114;SDS011;41988;53.020;6.576;2022-10-16T12:03:53;3.50;;;1.02;;
56114;SDS011;41988;53.020;6.576;2022-10-16T12:09:26;4.22;;;1.20;;
56114;SDS011;41988;53.020;6.576;2022-10-16T12:15:22;2.83;;;1.08;;
56114;SDS011;41988;53.020;6.576;2022-10-16T12:18:07;6.18;;;1.33;;
56114;SDS011;41988;53.020;6.576;2022-10-16T12:20:58;3.08;;;1.08;;
56114;SDS011;41988;53.020;6.576;2022-10-16T12:23:52;6.30;;;1.10;;
56114;SDS011;41988;53.020;6.576;2022-10-16T12:26:38;2.83;;;0.85;;
56114;SDS011;41988;53.020;6.576;2022-10-16T12:29:38;6.47;;;1.33;;
56114;SDS011;41988;53.020;6.576;2022-10-16T12:32:34;4.78;;;1.38;;
56114;SDS011;41988;53.020;6.576;2022-10-16T12:35:24;5.28;;;1.50;;
56114;SDS011;41988;53.020;6.576;2022-10-16T12:38:26;4.25;;;1.17;;
56114;SDS011;41988;53.020;6.576;2022-10-16T12:41:11;2.10;;;0.80;;
56114;SDS011;41988;53.020;6.576;2022-10-16T12:43:58;3.45;;;1.00;;
56114;SDS011;41988;53.020;6.576;2022-10-16T12:46:44;3.47;;;0.90;;
56114;SDS011;41988;53.020;6.576;2022-10-16T12:49:36;5.07;;;0.95;;
56114;SDS011;41988;53.020;6.576;2022-10-16T12:52:28;5.18;;;1.00;;
56114;SDS011;41988;53.020;6.576;2022-10-16T12:55:17;4.57;;;1.20;;
56114;SDS011;41988;53.020;6.576;2022-10-16T12:58:09;3.78;;;1.55;;
56114;SDS011;41988;53.020;6.576;2022-10-16T13:00:57;4.90;;;1.00;;
56114;SDS011;41988;53.020;6.576;2022-10-16T13:03:54;2.72;;;1.13;;
56114;SDS011;41988;53.020;6.576;2022-10-16T13:09:47;3.40;;;1.00;;
56114;SDS011;41988;53.020;6.576;2022-10-16T13:15:47;5.47;;;1.00;;
56114;SDS011;41988;53.020;6.576;2022-10-16T13:30:25;4.15;;;0.88;;
56114;SDS011;41988;53.020;6.576;2022-10-16T13:33:20;3.00;;;0.90;;
56114;SDS011;41988;53.020;6.576;2022-10-16T13:36:05;3.08;;;0.95;;
56114;SDS011;41988;53.020;6.576;2022-10-16T13:39:00;3.00;;;0.85;;
56114;SDS011;41988;53.020;6.576;2022-10-16T13:44:43;3.35;;;1.00;;
56114;SDS011;41988;53.020;6.576;2022-10-16T13:47:29;8.45;;;1.13;;
56114;SDS011;41988;53.020;6.576;2022-10-16T13:50:15;2.88;;;1.00;;
56114;SDS011;41988;53.020;6.576;2022-10-16T13:53:09;3.65;;;1.40;;
56114;SDS011;41988;53.020;6.576;2022-10-16T13:55:57;3.33;;;0.75;;
56114;SDS011;41988;53.020;6.576;2022-10-16T13:58:43;7.25;;;1.15;;
56114;SDS011;41988;53.020;6.576;2022-10-16T14:04:16;3.58;;;0.80;;
56114;SDS011;41988;53.020;6.576;2022-10-16T14:07:01;4.32;;;1.33;;
56114;SDS011;41988;53.020;6.576;2022-10-16T14:09:47;4.82;;;1.02;;
56114;SDS011;41988;53.020;6.576;2022-10-16T14:12:32;3.58;;;1.15;;
56114;SDS011;41988;53.020;6.576;2022-10-16T14:15:18;6.07;;;1.00;;
56114;SDS011;41988;53.020;6.576;2022-10-16T14:18:03;6.68;;;1.00;;
56114;SDS011;41988;53.020;6.576;2022-10-16T14:20:48;2.92;;;1.05;;
56114;SDS011;41988;53.020;6.576;2022-10-16T14:23:35;4.53;;;1.00;;
56114;SDS011;41988;53.020;6.576;2022-10-16T14:26:22;5.10;;;1.00;;
56114;SDS011;41988;53.020;6.576;2022-10-16T14:29:11;8.30;;;1.13;;
56114;SDS011;41988;53.020;6.576;2022-10-16T14:34:41;4.20;;;1.17;;
56114;SDS011;41988;53.020;6.576;2022-10-16T14:37:27;6.47;;;0.95;;
56114;SDS011;41988;53.020;6.576;2022-10-16T14:40:15;5.93;;;1.50;;
56114;SDS011;41988;53.020;6.576;2022-10-16T14:43:01;7.55;;;1.23;;
56114;SDS011;41988;53.020;6.576;2022-10-16T14:45:49;4.15;;;0.98;;
56114;SDS011;41988;53.020;6.576;2022-10-16T14:48:35;4.88;;;0.98;;
56114;SDS011;41988;53.020;6.576;2022-10-16T14:51:19;5.97;;;1.10;;
56114;SDS011;41988;53.020;6.576;2022-10-16T14:54:07;6.03;;;1.05;;
56114;SDS011;41988;53.020;6.576;2022-10-16T14:59:38;4.47;;;0.82;;
56114;SDS011;41988;53.020;6.576;2022-10-16T15:02:30;8.63;;;1.02;;
56114;SDS011;41988;53.020;6.576;2022-10-16T15:07:59;5.47;;;1.25;;
56114;SDS011;41988;53.020;6.576;2022-10-16T15:10:44;4.13;;;1.10;;
56114;SDS011;41988;53.020;6.576;2022-10-16T15:13:28;6.63;;;1.67;;
56114;SDS011;41988;53.020;6.576;2022-10-16T15:16:14;6.55;;;1.05;;
56114;SDS011;41988;53.020;6.576;2022-10-16T15:19:00;4.03;;;1.20;;
56114;SDS011;41988;53.020;6.576;2022-10-16T15:21:44;3.55;;;1.10;;
56114;SDS011;41988;53.020;6.576;2022-10-16T15:24:29;5.15;;;1.08;;
56114;SDS011;41988;53.020;6.576;2022-10-16T15:27:13;6.13;;;1.35;;
56114;SDS011;41988;53.020;6.576;2022-10-16T15:29:58;6.05;;;1.27;;
56114;SDS011;41988;53.020;6.576;2022-10-16T15:32:45;3.25;;;1.17;;
56114;SDS011;41988;53.020;6.576;2022-10-16T15:35:32;5.18;;;1.38;;
56114;SDS011;41988;53.020;6.576;2022-10-16T15:38:17;5.80;;;1.02;;
56114;SDS011;41988;53.020;6.576;2022-10-16T15:41:02;5.55;;;1.27;;
56114;SDS011;41988;53.020;6.576;2022-10-16T15:43:50;3.42;;;1.13;;
56114;SDS011;41988;53.020;6.576;2022-10-16T15:46:34;8.20;;;2.00;;
56114;SDS011;41988;53.020;6.576;2022-10-16T15:49:20;4.22;;;1.15;;
56114;SDS011;41988;53.020;6.576;2022-10-16T15:52:05;6.22;;;1.45;;
56114;SDS011;41988;53.020;6.576;2022-10-16T15:54:49;4.15;;;1.00;;
56114;SDS011;41988;53.020;6.576;2022-10-16T15:57:34;5.38;;;1.33;;
56114;SDS011;41988;53.020;6.576;2022-10-16T16:00:21;4.22;;;1.17;;
56114;SDS011;41988;53.020;6.576;2022-10-16T16:03:09;5.47;;;1.17;;
56114;SDS011;41988;53.020;6.576;2022-10-16T16:05:54;4.53;;;1.50;;
56114;SDS011;41988;53.020;6.576;2022-10-16T16:08:39;2.50;;;1.00;;
56114;SDS011;41988;53.020;6.576;2022-10-16T16:11:23;6.10;;;0.85;;
56114;SDS011;41988;53.020;6.576;2022-10-16T16:14:14;9.38;;;1.05;;
56114;SDS011;41988;53.020;6.576;2022-10-16T16:16:59;4.80;;;1.33;;
56114;SDS011;41988;53.020;6.576;2022-10-16T16:19:45;6.88;;;1.20;;
56114;SDS011;41988;53.020;6.576;2022-10-16T16:22:29;4.75;;;1.65;;
56114;SDS011;41988;53.020;6.576;2022-10-16T16:25:14;9.98;;;1.70;;
56114;SDS011;41988;53.020;6.576;2022-10-16T16:27:58;6.72;;;1.52;;
56114;SDS011;41988;53.020;6.576;2022-10-16T16:30:43;7.20;;;1.40;;
56114;SDS011;41988;53.020;6.576;2022-10-16T16:33:27;3.15;;;1.50;;
56114;SDS011;41988;53.020;6.576;2022-10-16T16:36:12;8.68;;;2.20;;
56114;SDS011;41988;53.020;6.576;2022-10-16T16:38:56;5.30;;;1.55;;
56114;SDS011;41988;53.020;6.576;2022-10-16T16:41:41;6.68;;;1.65;;
56114;SDS011;41988;53.020;6.576;2022-10-16T16:44:26;2.88;;;1.58;;
56114;SDS011;41988;53.020;6.576;2022-10-16T16:47:11;6.13;;;1.85;;
56114;SDS011;41988;53.020;6.576;2022-10-16T16:49:55;4.45;;;1.58;;
56114;SDS011;41988;53.020;6.576;2022-10-16T16:52:39;7.38;;;2.10;;
56114;SDS011;41988;53.020;6.576;2022-10-16T16:55:24;5.50;;;1.65;;
56114;SDS011;41988;53.020;6.576;2022-10-16T16:58:09;7.00;;;1.80;;
56114;SDS011;41988;53.020;6.576;2022-10-16T17:00:53;2.97;;;1.50;;
56114;SDS011;41988;53.020;6.576;2022-10-16T17:03:41;10.75;;;2.20;;
56114;SDS011;41988;53.020;6.576;2022-10-16T17:06:28;4.63;;;1.50;;
56114;SDS011;41988;53.020;6.576;2022-10-16T17:09:12;3.95;;;1.70;;
56114;SDS011;41988;53.020;6.576;2022-10-16T17:11:58;7.35;;;2.45;;
56114;SDS011;41988;53.020;6.576;2022-10-16T17:14:43;5.10;;;1.90;;
56114;SDS011;41988;53.020;6.576;2022-10-16T17:17:28;5.95;;;2.20;;
56114;SDS011;41988;53.020;6.576;2022-10-16T17:20:12;9.45;;;2.75;;
56114;SDS011;41988;53.020;6.576;2022-10-16T17:22:57;5.35;;;2.60;;
56114;SDS011;41988;53.020;6.576;2022-10-16T17:25:41;5.47;;;2.58;;
56114;SDS011;41988;53.020;6.576;2022-10-16T17:28:26;8.00;;;2.40;;
56114;SDS011;41988;53.020;6.576;2022-10-16T17:31:16;6.55;;;2.42;;
56114;SDS011;41988;53.020;6.576;2022-10-16T17:34:04;5.47;;;2.42;;
56114;SDS011;41988;53.020;6.576;2022-10-16T17:36:49;5.78;;;2.42;;
56114;SDS011;41988;53.020;6.576;2022-10-16T17:39:33;8.40;;;2.50;;
56114;SDS011;41988;53.020;6.576;2022-10-16T17:42:18;7.10;;;1.98;;
56114;SDS011;41988;53.020;6.576;2022-10-16T17:45:03;7.63;;;2.83;;
56114;SDS011;41988;53.020;6.576;2022-10-16T17:47:48;6.38;;;2.63;;
56114;SDS011;41988;53.020;6.576;2022-10-16T17:50:32;8.95;;;2.97;;
56114;SDS011;41988;53.020;6.576;2022-10-16T17:53:17;4.10;;;2.50;;
56114;SDS011;41988;53.020;6.576;2022-10-16T17:56:03;7.72;;;2.65;;
56114;SDS011;41988;53.020;6.576;2022-10-16T17:58:48;9.10;;;3.40;;
56114;SDS011;41988;53.020;6.576;2022-10-16T18:01:34;8.23;;;3.25;;
56114;SDS011;41988;53.020;6.576;2022-10-16T18:04:19;5.45;;;3.03;;
56114;SDS011;41988;53.020;6.576;2022-10-16T18:07:04;10.75;;;3.30;;
56114;SDS011;41988;53.020;6.576;2022-10-16T18:09:49;8.60;;;3.80;;
56114;SDS011;41988;53.020;6.576;2022-10-16T18:12:33;8.57;;;3.85;;
56114;SDS011;41988;53.020;6.576;2022-10-16T18:15:18;7.15;;;4.13;;
56114;SDS011;41988;53.020;6.576;2022-10-16T18:18:03;10.48;;;4.18;;
56114;SDS011;41988;53.020;6.576;2022-10-16T18:20:54;11.35;;;3.97;;